sensor_id;sensor_type;location;lat;lon;timestamp;P1;durP1;ratioP1;P2;durP2;ratioP2
29466;SDS011;60968;37.490;-122.288;2023-08-07T00:00:58;6.80;;;4.13;;
29466;SDS011;60968;37.490;-122.288;2023-08-07T00:03:58;8.68;;;5.47;;
29466;SDS011;60968;37.490;-122.288;2023-08-07T00:06:59;7.07;;;4.20;;
29466;SDS011;60968;37.490;-122.288;2023-08-07T00:10:00;5.75;;;3.67;;
29466;SDS011;60968;37.490;-122.288;2023-08-07T00:13:01;7.90;;;4.22;;
29466;SDS011;60968;37.490;-122.288;2023-08-07T00:16:02;8.48;;;4.10;;
29466;SDS011;60968;37.490;-122.288;2023-08-07T00:19:03;8.73;;;4.65;;
29466;SDS011;60968;37.490;-122.288;2023-08-07T00:22:04;6.80;;;3.90;;
29466;SDS011;60968;37.490;-122.288;2023-08-07T00:25:06;7.40;;;3.88;;
29466;SDS011;60968;37.490;-122.288;2023-08-07T00:28:07;13.27;;;8.50;;
29466;SDS011;60968;37.490;-122.288;2023-08-07T00:31:08;11.35;;;5.20;;
29466;SDS011;60968;37.490;-122.288;2023-08-07T00:34:09;8.32;;;4.35;;
29466;SDS011;60968;37.490;-122.288;2023-08-07T00:37:10;5.68;;;4.18;;
29466;SDS011;60968;37.490;-122.288;2023-08-07T00:40:11;8.00;;;4.35;;
29466;SDS011;60968;37.490;-122.288;2023-08-07T00:43:12;10.43;;;4.60;;
29466;SDS011;60968;37.490;-122.288;2023-08-07T00:46:14;8.70;;;4.78;;
29466;SDS011;60968;37.490;-122.288;2023-08-07T00:49:15;7.20;;;4.05;;
29466;SDS011;60968;37.490;-122.288;2023-08-07T00:52:17;7.43;;;4.13;;
29466;SDS011;60968;37.490;-122.288;2023-08-07T00:55:18;10.57;;;4.68;;
29466;SDS011;60968;37.490;-122.288;2023-08-07T00:58:19;10.43;;;4.82;;
29466;SDS011;60968;37.490;-122.288;2023-08-07T01:01:20;9.30;;;4.05;;
29466;SDS011;60968;37.490;-122.288;2023-08-07T01:04:22;6.28;;;3.95;;
29466;SDS011;60968;37.490;-122.288;2023-08-07T01:07:23;8.07;;;4.65;;
29466;SDS011;60968;37.490;-122.288;2023-08-07T01:14:28;7.78;;;4.53;;
29466;SDS011;60968;37.490;-122.288;2023-08-07T01:17:05;9.10;;;4.28;;
29466;SDS011;60968;37.490;-122.288;2023-08-07T01:20:16;8.43;;;4.40;;
29466;SDS011;60968;37.490;-122.288;2023-08-07T01:23:18;8.18;;;4.18;;
29466;SDS011;60968;37.490;-122.288;2023-08-07T01:26:19;7.18;;;3.60;;
29466;SDS011;60968;37.490;-122.288;2023-08-07T01:29:26;7.90;;;3.75;;
29466;SDS011;60968;37.490;-122.288;2023-08-07T01:36:11;8.40;;;3.92;;
29466;SDS011;60968;37.490;-122.288;2023-08-07T01:39:13;7.95;;;3.70;;
29466;SDS011;60968;37.490;-122.288;2023-08-07T01:42:14;6.72;;;2.95;;
29466;SDS011;60968;37.490;-122.288;2023-08-07T01:45:24;7.75;;;3.47;;
29466;SDS011;60968;37.490;-122.288;2023-08-07T01:48:26;6.30;;;2.90;;
29466;SDS011;60968;37.490;-122.288;2023-08-07T01:51:28;7.95;;;3.35;;
29466;SDS011;60968;37.490;-122.288;2023-08-07T01:54:29;9.93;;;3.53;;
29466;SDS011;60968;37.490;-122.288;2023-08-07T01:57:30;11.27;;;3.45;;
29466;SDS011;60968;37.490;-122.288;2023-08-07T02:00:30;12.65;;;3.83;;
29466;SDS011;60968;37.490;-122.288;2023-08-07T02:03:31;10.95;;;3.58;;
29466;SDS011;60968;37.490;-122.288;2023-08-07T02:06:32;9.77;;;3.65;;
29466;SDS011;60968;37.490;-122.288;2023-08-07T02:09:33;9.50;;;4.03;;
29466;SDS011;60968;37.490;-122.288;2023-08-07T02:12:34;8.43;;;3.72;;
29466;SDS011;60968;37.490;-122.288;2023-08-07T02:15:35;8.95;;;3.80;;
29466;SDS011;60968;37.490;-122.288;2023-08-07T02:18:36;8.77;;;3.50;;
29466;SDS011;60968;37.490;-122.288;2023-08-07T02:21:36;9.82;;;3.70;;
29466;SDS011;60968;37.490;-122.288;2023-08-07T02:24:37;8.95;;;3.22;;
29466;SDS011;60968;37.490;-122.288;2023-08-07T02:27:38;6.73;;;3.00;;
29466;SDS011;60968;37.490;-122.288;2023-08-07T02:30:40;7.30;;;3.37;;
29466;SDS011;60968;37.490;-122.288;2023-08-07T02:33:41;12.18;;;3.70;;
29466;SDS011;60968;37.490;-122.288;2023-08-07T02:36:42;13.50;;;4.37;;
29466;SDS011;60968;37.490;-122.288;2023-08-07T02:39:43;9.52;;;4.07;;
29466;SDS011;60968;37.490;-122.288;2023-08-07T02:42:44;11.87;;;4.00;;
29466;SDS011;60968;37.490;-122.288;2023-08-07T02:45:45;9.60;;;3.50;;
29466;SDS011;60968;37.490;-122.288;2023-08-07T02:48:46;10.70;;;3.53;;
29466;SDS011;60968;37.490;-122.288;2023-08-07T02:51:47;9.50;;;4.00;;
29466;SDS011;60968;37.490;-122.288;2023-08-07T02:54:48;7.60;;;3.23;;
29466;SDS011;60968;37.490;-122.288;2023-08-07T02:57:50;8.10;;;3.30;;
29466;SDS011;60968;37.490;-122.288;2023-08-07T03:00:52;7.30;;;3.13;;
29466;SDS011;60968;37.490;-122.288;2023-08-07T03:03:54;8.17;;;3.60;;
29466;SDS011;60968;37.490;-122.288;2023-08-07T03:06:55;6.77;;;3.50;;
29466;SDS011;60968;37.490;-122.288;2023-08-07T03:09:57;8.13;;;3.77;;
29466;SDS011;60968;37.490;-122.288;2023-08-07T03:12:58;6.57;;;2.90;;
29466;SDS011;60968;37.490;-122.288;2023-08-07T03:16:05;5.63;;;3.53;;
29466;SDS011;60968;37.490;-122.288;2023-08-07T03:19:06;8.80;;;3.33;;
29466;SDS011;60968;37.490;-122.288;2023-08-07T03:22:09;7.53;;;3.30;;
29466;SDS011;60968;37.490;-122.288;2023-08-07T03:25:10;7.30;;;3.80;;
29466;SDS011;60968;37.490;-122.288;2023-08-07T03:28:12;9.30;;;3.50;;
29466;SDS011;60968;37.490;-122.288;2023-08-07T03:31:15;9.43;;;4.07;;
29466;SDS011;60968;37.490;-122.288;2023-08-07T03:34:17;7.33;;;3.77;;
29466;SDS011;60968;37.490;-122.288;2023-08-07T03:37:19;11.50;;;4.27;;
29466;SDS011;60968;37.490;-122.288;2023-08-07T03:40:20;12.73;;;4.10;;
29466;SDS011;60968;37.490;-122.288;2023-08-07T03:43:22;10.23;;;4.23;;
29466;SDS011;60968;37.490;-122.288;2023-08-07T03:46:23;8.43;;;4.13;;
29466;SDS011;60968;37.490;-122.288;2023-08-07T03:49:27;10.33;;;4.47;;
29466;SDS011;60968;37.490;-122.288;2023-08-07T03:52:28;8.07;;;4.10;;
29466;SDS011;60968;37.490;-122.288;2023-08-07T03:55:30;11.60;;;4.07;;
29466;SDS011;60968;37.490;-122.288;2023-08-07T03:58:31;11.00;;;4.40;;
29466;SDS011;60968;37.490;-122.288;2023-08-07T04:01:33;8.67;;;4.67;;
29466;SDS011;60968;37.490;-122.288;2023-08-07T04:04:35;11.80;;;4.87;;
29466;SDS011;60968;37.490;-122.288;2023-08-07T04:07:36;7.57;;;3.90;;
29466;SDS011;60968;37.490;-122.288;2023-08-07T04:10:37;8.63;;;4.30;;
29466;SDS011;60968;37.490;-122.288;2023-08-07T04:13:39;8.60;;;4.20;;
29466;SDS011;60968;37.490;-122.288;2023-08-07T04:16:40;9.50;;;4.50;;
29466;SDS011;60968;37.490;-122.288;2023-08-07T04:19:42;9.73;;;4.30;;
29466;SDS011;60968;37.490;-122.288;2023-08-07T04:22:43;9.00;;;4.40;;
29466;SDS011;60968;37.490;-122.288;2023-08-07T04:25:45;9.73;;;4.20;;
29466;SDS011;60968;37.490;-122.288;2023-08-07T04:28:49;10.60;;;4.10;;
29466;SDS011;60968;37.490;-122.288;2023-08-07T04:31:50;11.83;;;4.97;;
29466;SDS011;60968;37.490;-122.288;2023-08-07T04:34:51;18.33;;;5.60;;
29466;SDS011;60968;37.490;-122.288;2023-08-07T04:37:53;10.70;;;4.30;;
29466;SDS011;60968;37.490;-122.288;2023-08-07T04:40:54;8.27;;;4.23;;
29466;SDS011;60968;37.490;-122.288;2023-08-07T04:43:55;15.73;;;4.83;;
29466;SDS011;60968;37.490;-122.288;2023-08-07T04:46:56;14.33;;;5.13;;
29466;SDS011;60968;37.490;-122.288;2023-08-07T04:49:57;11.53;;;4.63;;
29466;SDS011;60968;37.490;-122.288;2023-08-07T04:52:59;11.93;;;4.80;;
29466;SDS011;60968;37.490;-122.288;2023-08-07T04:56:00;10.20;;;3.80;;
29466;SDS011;60968;37.490;-122.288;2023-08-07T04:59:03;15.63;;;4.50;;
29466;SDS011;60968;37.490;-122.288;2023-08-07T05:02:09;16.03;;;5.33;;
29466;SDS011;60968;37.490;-122.288;2023-08-07T05:05:11;12.37;;;4.53;;
29466;SDS011;60968;37.490;-122.288;2023-08-07T05:08:12;12.07;;;4.57;;
29466;SDS011;60968;37.490;-122.288;2023-08-07T05:11:18;12.90;;;4.60;;
29466;SDS011;60968;37.490;-122.288;2023-08-07T05:14:19;14.60;;;4.67;;
29466;SDS011;60968;37.490;-122.288;2023-08-07T05:17:20;13.73;;;4.97;;
29466;SDS011;60968;37.490;-122.288;2023-08-07T05:20:22;13.00;;;4.57;;
29466;SDS011;60968;37.490;-122.288;2023-08-07T05:23:23;17.07;;;5.67;;
29466;SDS011;60968;37.490;-122.288;2023-08-07T05:26:25;17.70;;;5.13;;
29466;SDS011;60968;37.490;-122.288;2023-08-07T05:29:27;21.07;;;6.20;;
29466;SDS011;60968;37.490;-122.288;2023-08-07T05:32:28;15.63;;;4.90;;
29466;SDS011;60968;37.490;-122.288;2023-08-07T05:35:30;24.90;;;6.60;;
29466;SDS011;60968;37.490;-122.288;2023-08-07T05:38:32;13.10;;;5.50;;
29466;SDS011;60968;37.490;-122.288;2023-08-07T05:41:33;15.67;;;5.70;;
29466;SDS011;60968;37.490;-122.288;2023-08-07T05:44:36;12.47;;;5.03;;
29466;SDS011;60968;37.490;-122.288;2023-08-07T05:47:39;13.00;;;4.93;;
29466;SDS011;60968;37.490;-122.288;2023-08-07T05:50:44;15.03;;;4.87;;
29466;SDS011;60968;37.490;-122.288;2023-08-07T05:53:46;14.73;;;4.83;;
29466;SDS011;60968;37.490;-122.288;2023-08-07T05:56:47;11.07;;;4.60;;
29466;SDS011;60968;37.490;-122.288;2023-08-07T05:59:49;12.13;;;5.33;;
29466;SDS011;60968;37.490;-122.288;2023-08-07T06:02:50;11.93;;;5.03;;
29466;SDS011;60968;37.490;-122.288;2023-08-07T06:05:54;12.70;;;5.30;;
29466;SDS011;60968;37.490;-122.288;2023-08-07T06:08:56;9.97;;;4.87;;
29466;SDS011;60968;37.490;-122.288;2023-08-07T06:11:58;11.70;;;4.70;;
29466;SDS011;60968;37.490;-122.288;2023-08-07T06:14:59;10.47;;;5.70;;
29466;SDS011;60968;37.490;-122.288;2023-08-07T06:18:01;13.23;;;5.17;;
29466;SDS011;60968;37.490;-122.288;2023-08-07T06:21:02;12.77;;;5.50;;
29466;SDS011;60968;37.490;-122.288;2023-08-07T06:24:03;14.80;;;5.40;;
29466;SDS011;60968;37.490;-122.288;2023-08-07T06:27:05;11.50;;;5.23;;
29466;SDS011;60968;37.490;-122.288;2023-08-07T06:30:06;12.37;;;5.13;;
29466;SDS011;60968;37.490;-122.288;2023-08-07T06:33:08;9.60;;;4.83;;
29466;SDS011;60968;37.490;-122.288;2023-08-07T06:36:09;17.67;;;5.27;;
29466;SDS011;60968;37.490;-122.288;2023-08-07T06:39:14;10.37;;;4.90;;
29466;SDS011;60968;37.490;-122.288;2023-08-07T06:42:17;10.90;;;5.03;;
29466;SDS011;60968;37.490;-122.288;2023-08-07T06:45:18;8.13;;;4.93;;
29466;SDS011;60968;37.490;-122.288;2023-08-07T06:48:19;12.53;;;4.73;;
29466;SDS011;60968;37.490;-122.288;2023-08-07T06:51:20;15.53;;;5.10;;
29466;SDS011;60968;37.490;-122.288;2023-08-07T06:54:22;10.97;;;5.83;;
29466;SDS011;60968;37.490;-122.288;2023-08-07T06:57:23;12.43;;;5.27;;
29466;SDS011;60968;37.490;-122.288;2023-08-07T07:00:24;11.07;;;5.20;;
29466;SDS011;60968;37.490;-122.288;2023-08-07T07:03:26;13.87;;;5.60;;
29466;SDS011;60968;37.490;-122.288;2023-08-07T07:06:27;11.80;;;4.93;;
29466;SDS011;60968;37.490;-122.288;2023-08-07T07:09:29;13.27;;;5.03;;
29466;SDS011;60968;37.490;-122.288;2023-08-07T07:12:31;12.33;;;5.63;;
29466;SDS011;60968;37.490;-122.288;2023-08-07T07:15:32;12.07;;;5.23;;
29466;SDS011;60968;37.490;-122.288;2023-08-07T07:18:33;13.57;;;5.60;;
29466;SDS011;60968;37.490;-122.288;2023-08-07T07:21:35;11.57;;;5.10;;
29466;SDS011;60968;37.490;-122.288;2023-08-07T07:24:36;13.73;;;5.40;;
29466;SDS011;60968;37.490;-122.288;2023-08-07T07:27:39;10.73;;;4.57;;
29466;SDS011;60968;37.490;-122.288;2023-08-07T07:30:40;11.53;;;5.37;;
29466;SDS011;60968;37.490;-122.288;2023-08-07T07:33:41;16.83;;;5.60;;
29466;SDS011;60968;37.490;-122.288;2023-08-07T07:36:43;11.23;;;5.20;;
29466;SDS011;60968;37.490;-122.288;2023-08-07T07:39:44;10.83;;;5.37;;
29466;SDS011;60968;37.490;-122.288;2023-08-07T07:42:46;12.67;;;4.63;;
29466;SDS011;60968;37.490;-122.288;2023-08-07T07:45:47;14.13;;;5.17;;
29466;SDS011;60968;37.490;-122.288;2023-08-07T07:48:48;14.90;;;5.60;;
29466;SDS011;60968;37.490;-122.288;2023-08-07T07:51:49;14.70;;;5.60;;
29466;SDS011;60968;37.490;-122.288;2023-08-07T07:54:51;10.67;;;5.53;;
29466;SDS011;60968;37.490;-122.288;2023-08-07T07:57:53;13.40;;;5.60;;
29466;SDS011;60968;37.490;-122.288;2023-08-07T08:00:55;14.77;;;6.13;;
29466;SDS011;60968;37.490;-122.288;2023-08-07T08:03:56;13.53;;;5.70;;
29466;SDS011;60968;37.490;-122.288;2023-08-07T08:06:57;18.00;;;6.77;;
29466;SDS011;60968;37.490;-122.288;2023-08-07T08:10:00;14.57;;;5.73;;
29466;SDS011;60968;37.490;-122.288;2023-08-07T08:13:01;16.43;;;5.50;;
29466;SDS011;60968;37.490;-122.288;2023-08-07T08:16:04;17.30;;;5.90;;
29466;SDS011;60968;37.490;-122.288;2023-08-07T08:19:05;12.50;;;5.23;;
29466;SDS011;60968;37.490;-122.288;2023-08-07T08:22:08;11.57;;;5.83;;
29466;SDS011;60968;37.490;-122.288;2023-08-07T08:25:11;14.40;;;5.97;;
29466;SDS011;60968;37.490;-122.288;2023-08-07T08:28:13;13.80;;;5.70;;
29466;SDS011;60968;37.490;-122.288;2023-08-07T08:31:16;19.67;;;6.77;;
29466;SDS011;60968;37.490;-122.288;2023-08-07T08:34:17;15.07;;;5.87;;
29466;SDS011;60968;37.490;-122.288;2023-08-07T08:37:19;17.43;;;5.83;;
29466;SDS011;60968;37.490;-122.288;2023-08-07T08:40:21;16.10;;;5.73;;
29466;SDS011;60968;37.490;-122.288;2023-08-07T08:43:33;20.70;;;5.80;;
29466;SDS011;60968;37.490;-122.288;2023-08-07T08:46:38;18.73;;;6.03;;
29466;SDS011;60968;37.490;-122.288;2023-08-07T08:49:45;14.93;;;5.90;;
29466;SDS011;60968;37.490;-122.288;2023-08-07T08:52:58;19.93;;;6.97;;
29466;SDS011;60968;37.490;-122.288;2023-08-07T08:56:02;18.13;;;6.33;;
29466;SDS011;60968;37.490;-122.288;2023-08-07T08:59:03;15.90;;;6.17;;
29466;SDS011;60968;37.490;-122.288;2023-08-07T09:02:05;23.90;;;6.63;;
29466;SDS011;60968;37.490;-122.288;2023-08-07T09:05:18;16.83;;;6.10;;
29466;SDS011;60968;37.490;-122.288;2023-08-07T09:08:21;18.83;;;6.00;;
29466;SDS011;60968;37.490;-122.288;2023-08-07T09:11:27;18.67;;;5.93;;
29466;SDS011;60968;37.490;-122.288;2023-08-07T09:14:32;23.13;;;6.80;;
29466;SDS011;60968;37.490;-122.288;2023-08-07T09:17:40;18.13;;;5.60;;
29466;SDS011;60968;37.490;-122.288;2023-08-07T09:20:47;20.60;;;5.87;;
29466;SDS011;60968;37.490;-122.288;2023-08-07T09:23:49;16.63;;;5.97;;
29466;SDS011;60968;37.490;-122.288;2023-08-07T09:26:51;21.07;;;6.73;;
29466;SDS011;60968;37.490;-122.288;2023-08-07T09:29:54;17.63;;;6.47;;
29466;SDS011;60968;37.490;-122.288;2023-08-07T09:32:59;19.33;;;6.13;;
29466;SDS011;60968;37.490;-122.288;2023-08-07T09:36:03;18.43;;;6.33;;
29466;SDS011;60968;37.490;-122.288;2023-08-07T09:39:05;24.80;;;7.23;;
29466;SDS011;60968;37.490;-122.288;2023-08-07T09:42:14;26.93;;;8.43;;
29466;SDS011;60968;37.490;-122.288;2023-08-07T09:48:23;20.07;;;6.70;;
29466;SDS011;60968;37.490;-122.288;2023-08-07T09:51:25;19.33;;;6.27;;
29466;SDS011;60968;37.490;-122.288;2023-08-07T09:54:26;18.20;;;6.70;;
29466;SDS011;60968;37.490;-122.288;2023-08-07T09:57:28;19.30;;;5.97;;
29466;SDS011;60968;37.490;-122.288;2023-08-07T10:00:33;20.60;;;6.63;;
29466;SDS011;60968;37.490;-122.288;2023-08-07T10:03:37;22.27;;;6.33;;
29466;SDS011;60968;37.490;-122.288;2023-08-07T10:06:38;26.70;;;7.33;;
29466;SDS011;60968;37.490;-122.288;2023-08-07T10:09:40;25.33;;;7.00;;
29466;SDS011;60968;37.490;-122.288;2023-08-07T10:12:43;21.27;;;7.27;;
29466;SDS011;60968;37.490;-122.288;2023-08-07T10:15:45;29.27;;;6.93;;
29466;SDS011;60968;37.490;-122.288;2023-08-07T10:18:49;25.67;;;6.63;;
29466;SDS011;60968;37.490;-122.288;2023-08-07T10:21:50;17.80;;;6.30;;
29466;SDS011;60968;37.490;-122.288;2023-08-07T10:24:56;24.30;;;6.97;;
29466;SDS011;60968;37.490;-122.288;2023-08-07T10:28:01;22.37;;;7.17;;
29466;SDS011;60968;37.490;-122.288;2023-08-07T10:31:07;22.50;;;6.60;;
29466;SDS011;60968;37.490;-122.288;2023-08-07T10:34:12;20.93;;;7.10;;
29466;SDS011;60968;37.490;-122.288;2023-08-07T10:41:02;25.53;;;6.70;;
29466;SDS011;60968;37.490;-122.288;2023-08-07T10:44:23;20.77;;;6.20;;
29466;SDS011;60968;37.490;-122.288;2023-08-07T10:47:33;29.10;;;7.03;;
29466;SDS011;60968;37.490;-122.288;2023-08-07T10:50:35;24.57;;;7.17;;
29466;SDS011;60968;37.490;-122.288;2023-08-07T10:53:57;23.20;;;6.43;;
29466;SDS011;60968;37.490;-122.288;2023-08-07T10:56:59;27.00;;;6.70;;
29466;SDS011;60968;37.490;-122.288;2023-08-07T11:00:02;17.40;;;5.97;;
29466;SDS011;60968;37.490;-122.288;2023-08-07T11:03:04;23.37;;;6.77;;
29466;SDS011;60968;37.490;-122.288;2023-08-07T11:06:06;24.60;;;6.60;;
29466;SDS011;60968;37.490;-122.288;2023-08-07T11:09:10;20.77;;;6.60;;
29466;SDS011;60968;37.490;-122.288;2023-08-07T11:12:13;19.60;;;6.97;;
29466;SDS011;60968;37.490;-122.288;2023-08-07T11:15:15;22.93;;;6.13;;
29466;SDS011;60968;37.490;-122.288;2023-08-07T11:18:26;20.83;;;6.43;;
29466;SDS011;60968;37.490;-122.288;2023-08-07T11:21:27;24.17;;;6.17;;
29466;SDS011;60968;37.490;-122.288;2023-08-07T11:24:31;24.67;;;6.57;;
29466;SDS011;60968;37.490;-122.288;2023-08-07T11:27:32;22.10;;;6.67;;
29466;SDS011;60968;37.490;-122.288;2023-08-07T11:30:35;18.40;;;6.00;;
29466;SDS011;60968;37.490;-122.288;2023-08-07T11:33:36;20.13;;;7.10;;
29466;SDS011;60968;37.490;-122.288;2023-08-07T11:36:41;28.03;;;7.90;;
29466;SDS011;60968;37.490;-122.288;2023-08-07T11:39:43;20.57;;;6.23;;
29466;SDS011;60968;37.490;-122.288;2023-08-07T11:42:44;17.17;;;6.33;;
29466;SDS011;60968;37.490;-122.288;2023-08-07T11:45:46;27.17;;;7.70;;
29466;SDS011;60968;37.490;-122.288;2023-08-07T11:48:47;24.77;;;7.40;;
29466;SDS011;60968;37.490;-122.288;2023-08-07T11:51:48;26.47;;;7.57;;
29466;SDS011;60968;37.490;-122.288;2023-08-07T11:54:52;27.83;;;7.37;;
29466;SDS011;60968;37.490;-122.288;2023-08-07T11:57:53;20.97;;;7.53;;
29466;SDS011;60968;37.490;-122.288;2023-08-07T12:00:54;29.20;;;7.27;;
29466;SDS011;60968;37.490;-122.288;2023-08-07T12:03:56;30.90;;;7.40;;
29466;SDS011;60968;37.490;-122.288;2023-08-07T12:07:11;21.70;;;6.77;;
29466;SDS011;60968;37.490;-122.288;2023-08-07T12:10:18;25.07;;;7.27;;
29466;SDS011;60968;37.490;-122.288;2023-08-07T12:13:25;23.40;;;6.37;;
29466;SDS011;60968;37.490;-122.288;2023-08-07T12:16:31;28.37;;;8.30;;
29466;SDS011;60968;37.490;-122.288;2023-08-07T12:19:35;27.17;;;7.27;;
29466;SDS011;60968;37.490;-122.288;2023-08-07T12:22:37;23.47;;;6.87;;
29466;SDS011;60968;37.490;-122.288;2023-08-07T12:25:39;25.90;;;8.23;;
29466;SDS011;60968;37.490;-122.288;2023-08-07T12:28:41;33.33;;;7.83;;
29466;SDS011;60968;37.490;-122.288;2023-08-07T12:31:43;35.97;;;8.77;;
29466;SDS011;60968;37.490;-122.288;2023-08-07T12:34:44;31.60;;;7.87;;
29466;SDS011;60968;37.490;-122.288;2023-08-07T12:37:49;23.53;;;7.20;;
29466;SDS011;60968;37.490;-122.288;2023-08-07T12:40:50;28.27;;;7.53;;
29466;SDS011;60968;37.490;-122.288;2023-08-07T12:43:51;24.00;;;8.37;;
29466;SDS011;60968;37.490;-122.288;2023-08-07T12:46:54;26.33;;;7.50;;
29466;SDS011;60968;37.490;-122.288;2023-08-07T12:49:59;25.60;;;7.03;;
29466;SDS011;60968;37.490;-122.288;2023-08-07T12:53:00;19.30;;;5.47;;
29466;SDS011;60968;37.490;-122.288;2023-08-07T12:56:02;11.97;;;4.63;;
29466;SDS011;60968;37.490;-122.288;2023-08-07T12:59:04;10.30;;;4.13;;
29466;SDS011;60968;37.490;-122.288;2023-08-07T13:02:05;14.70;;;4.57;;
29466;SDS011;60968;37.490;-122.288;2023-08-07T13:05:08;9.30;;;4.47;;
29466;SDS011;60968;37.490;-122.288;2023-08-07T13:08:09;15.00;;;4.80;;
29466;SDS011;60968;37.490;-122.288;2023-08-07T13:11:12;8.83;;;4.57;;
29466;SDS011;60968;37.490;-122.288;2023-08-07T13:14:13;8.77;;;4.07;;
29466;SDS011;60968;37.490;-122.288;2023-08-07T13:17:14;9.00;;;4.70;;
29466;SDS011;60968;37.490;-122.288;2023-08-07T13:20:15;12.60;;;5.00;;
29466;SDS011;60968;37.490;-122.288;2023-08-07T13:23:17;11.03;;;5.13;;
29466;SDS011;60968;37.490;-122.288;2023-08-07T13:26:18;9.97;;;4.00;;
29466;SDS011;60968;37.490;-122.288;2023-08-07T13:29:22;12.97;;;4.93;;
29466;SDS011;60968;37.490;-122.288;2023-08-07T13:32:24;13.80;;;5.27;;
29466;SDS011;60968;37.490;-122.288;2023-08-07T13:35:27;12.33;;;5.63;;
29466;SDS011;60968;37.490;-122.288;2023-08-07T13:38:28;14.50;;;5.23;;
29466;SDS011;60968;37.490;-122.288;2023-08-07T13:41:29;10.33;;;4.80;;
29466;SDS011;60968;37.490;-122.288;2023-08-07T13:44:31;12.60;;;4.80;;
29466;SDS011;60968;37.490;-122.288;2023-08-07T13:47:33;11.33;;;4.40;;
29466;SDS011;60968;37.490;-122.288;2023-08-07T13:50:35;13.70;;;5.47;;
29466;SDS011;60968;37.490;-122.288;2023-08-07T13:53:37;10.47;;;4.60;;
29466;SDS011;60968;37.490;-122.288;2023-08-07T13:56:38;13.63;;;5.07;;
29466;SDS011;60968;37.490;-122.288;2023-08-07T13:59:39;11.10;;;4.73;;
29466;SDS011;60968;37.490;-122.288;2023-08-07T14:02:43;19.10;;;5.47;;
29466;SDS011;60968;37.490;-122.288;2023-08-07T14:05:44;12.30;;;4.63;;
29466;SDS011;60968;37.490;-122.288;2023-08-07T14:08:46;13.63;;;5.13;;
29466;SDS011;60968;37.490;-122.288;2023-08-07T14:11:49;13.93;;;5.60;;
29466;SDS011;60968;37.490;-122.288;2023-08-07T14:14:51;16.70;;;5.67;;
29466;SDS011;60968;37.490;-122.288;2023-08-07T14:17:52;15.47;;;5.50;;
29466;SDS011;60968;37.490;-122.288;2023-08-07T14:20:54;20.37;;;6.20;;
29466;SDS011;60968;37.490;-122.288;2023-08-07T14:23:59;18.23;;;6.33;;
29466;SDS011;60968;37.490;-122.288;2023-08-07T14:27:04;20.40;;;6.63;;
29466;SDS011;60968;37.490;-122.288;2023-08-07T14:30:06;17.00;;;5.97;;
29466;SDS011;60968;37.490;-122.288;2023-08-07T14:33:07;18.23;;;5.93;;
29466;SDS011;60968;37.490;-122.288;2023-08-07T14:36:09;23.27;;;7.37;;
29466;SDS011;60968;37.490;-122.288;2023-08-07T14:39:10;20.40;;;6.50;;
29466;SDS011;60968;37.490;-122.288;2023-08-07T14:42:15;20.97;;;6.70;;
29466;SDS011;60968;37.490;-122.288;2023-08-07T14:45:22;22.00;;;6.00;;
29466;SDS011;60968;37.490;-122.288;2023-08-07T14:48:23;24.10;;;6.43;;
29466;SDS011;60968;37.490;-122.288;2023-08-07T14:51:27;26.63;;;7.33;;
29466;SDS011;60968;37.490;-122.288;2023-08-07T14:54:29;26.60;;;7.37;;
29466;SDS011;60968;37.490;-122.288;2023-08-07T14:57:31;24.77;;;7.30;;
29466;SDS011;60968;37.490;-122.288;2023-08-07T15:00:34;24.33;;;7.37;;
29466;SDS011;60968;37.490;-122.288;2023-08-07T15:03:36;22.07;;;6.57;;
29466;SDS011;60968;37.490;-122.288;2023-08-07T15:06:40;24.10;;;7.30;;
29466;SDS011;60968;37.490;-122.288;2023-08-07T15:09:42;24.80;;;7.33;;
29466;SDS011;60968;37.490;-122.288;2023-08-07T15:12:43;25.10;;;7.43;;
29466;SDS011;60968;37.490;-122.288;2023-08-07T15:15:45;35.10;;;8.73;;
29466;SDS011;60968;37.490;-122.288;2023-08-07T15:18:46;23.30;;;6.47;;
29466;SDS011;60968;37.490;-122.288;2023-08-07T15:21:50;26.83;;;8.07;;
29466;SDS011;60968;37.490;-122.288;2023-08-07T15:24:52;23.30;;;6.93;;
29466;SDS011;60968;37.490;-122.288;2023-08-07T15:27:53;25.93;;;7.63;;
29466;SDS011;60968;37.490;-122.288;2023-08-07T15:30:55;24.03;;;7.93;;
29466;SDS011;60968;37.490;-122.288;2023-08-07T15:33:56;21.30;;;7.13;;
29466;SDS011;60968;37.490;-122.288;2023-08-07T15:36:58;25.37;;;7.77;;
29466;SDS011;60968;37.490;-122.288;2023-08-07T15:40:02;23.63;;;7.77;;
29466;SDS011;60968;37.490;-122.288;2023-08-07T15:43:04;24.90;;;6.83;;
29466;SDS011;60968;37.490;-122.288;2023-08-07T15:46:05;22.17;;;7.87;;
29466;SDS011;60968;37.490;-122.288;2023-08-07T15:49:07;25.83;;;7.63;;
29466;SDS011;60968;37.490;-122.288;2023-08-07T15:52:09;20.40;;;7.07;;
29466;SDS011;60968;37.490;-122.288;2023-08-07T15:55:11;24.63;;;7.80;;
29466;SDS011;60968;37.490;-122.288;2023-08-07T15:58:12;22.03;;;6.63;;
29466;SDS011;60968;37.490;-122.288;2023-08-07T16:01:13;23.87;;;7.40;;
29466;SDS011;60968;37.490;-122.288;2023-08-07T16:04:14;16.17;;;6.23;;
29466;SDS011;60968;37.490;-122.288;2023-08-07T16:07:16;18.30;;;6.30;;
29466;SDS011;60968;37.490;-122.288;2023-08-07T16:10:19;21.53;;;5.93;;
29466;SDS011;60968;37.490;-122.288;2023-08-07T16:13:32;24.83;;;6.83;;
29466;SDS011;60968;37.490;-122.288;2023-08-07T16:16:36;27.50;;;7.00;;
29466;SDS011;60968;37.490;-122.288;2023-08-07T16:19:37;21.57;;;6.53;;
29466;SDS011;60968;37.490;-122.288;2023-08-07T16:22:39;22.67;;;7.00;;
29466;SDS011;60968;37.490;-122.288;2023-08-07T16:25:40;19.30;;;6.67;;
29466;SDS011;60968;37.490;-122.288;2023-08-07T16:28:42;17.00;;;6.65;;
29466;SDS011;60968;37.490;-122.288;2023-08-07T16:31:43;16.83;;;6.88;;
29466;SDS011;60968;37.490;-122.288;2023-08-07T16:34:45;19.73;;;7.35;;
29466;SDS011;60968;37.490;-122.288;2023-08-07T16:37:46;16.60;;;6.22;;
29466;SDS011;60968;37.490;-122.288;2023-08-07T16:40:48;24.35;;;7.90;;
29466;SDS011;60968;37.490;-122.288;2023-08-07T16:43:49;25.42;;;7.85;;
29466;SDS011;60968;37.490;-122.288;2023-08-07T16:46:50;24.80;;;8.48;;
29466;SDS011;60968;37.490;-122.288;2023-08-07T16:49:52;24.40;;;7.57;;
29466;SDS011;60968;37.490;-122.288;2023-08-07T16:52:53;17.40;;;6.97;;
29466;SDS011;60968;37.490;-122.288;2023-08-07T16:55:56;21.70;;;7.20;;
29466;SDS011;60968;37.490;-122.288;2023-08-07T16:58:56;20.70;;;7.85;;
29466;SDS011;60968;37.490;-122.288;2023-08-07T17:01:57;26.15;;;8.35;;
29466;SDS011;60968;37.490;-122.288;2023-08-07T17:04:58;21.38;;;7.45;;
29466;SDS011;60968;37.490;-122.288;2023-08-07T17:07:59;23.45;;;8.13;;
29466;SDS011;60968;37.490;-122.288;2023-08-07T17:11:00;20.65;;;6.85;;
29466;SDS011;60968;37.490;-122.288;2023-08-07T17:14:01;21.30;;;7.45;;
29466;SDS011;60968;37.490;-122.288;2023-08-07T17:17:03;22.70;;;7.47;;
29466;SDS011;60968;37.490;-122.288;2023-08-07T17:20:04;22.48;;;8.20;;
29466;SDS011;60968;37.490;-122.288;2023-08-07T17:23:06;24.10;;;8.90;;
29466;SDS011;60968;37.490;-122.288;2023-08-07T17:26:07;31.55;;;8.52;;
29466;SDS011;60968;37.490;-122.288;2023-08-07T17:29:08;20.45;;;7.43;;
29466;SDS011;60968;37.490;-122.288;2023-08-07T17:32:09;19.38;;;7.50;;